createdAt,value
2018-03-01T00:00:52.292Z,-9.34
2018-03-01T00:01:57.075Z,-9.41
2018-03-01T00:03:01.864Z,-9.49
2018-03-01T00:04:07.709Z,-9.52
2018-03-01T00:05:13.537Z,-9.54
2018-03-01T00:06:18.909Z,-9.49
2018-03-01T00:07:24.135Z,-9.48
2018-03-01T00:08:29.046Z,-9.45
2018-03-01T00:09:33.980Z,-9.43
2018-03-01T00:10:38.852Z,-9.49
2018-03-01T00:11:43.793Z,-9.50
2018-03-01T00:12:48.772Z,-9.37
2018-03-01T00:13:54.185Z,-9.44
2018-03-01T00:14:59.159Z,-9.41
2018-03-01T00:16:04.264Z,-9.35
2018-03-01T00:17:09.273Z,-9.28
2018-03-01T00:18:14.226Z,-9.34
2018-03-01T00:19:19.079Z,-9.36
2018-03-01T00:20:25.297Z,-9.37
2018-03-01T00:21:30.344Z,-9.47
2018-03-01T00:22:39.100Z,-9.48
2018-03-01T00:23:43.997Z,-9.37
2018-03-01T00:24:49.233Z,-9.38
2018-03-01T00:25:54.307Z,-9.38
2018-03-01T00:26:59.348Z,-9.40
2018-03-01T00:28:05.152Z,-9.31
2018-03-01T00:29:10.046Z,-9.29
2018-03-01T00:30:17.703Z,-9.33
2018-03-01T00:31:22.772Z,-9.40
2018-03-01T00:32:27.836Z,-9.34
2018-03-01T00:33:33.367Z,-9.41
2018-03-01T00:34:38.370Z,-9.47
2018-03-01T00:35:43.492Z,-9.42
2018-03-01T00:36:48.612Z,-9.41
2018-03-01T00:37:53.711Z,-9.42
2018-03-01T00:38:58.689Z,-9.38
2018-03-01T00:40:04.593Z,-9.40
2018-03-01T00:41:09.791Z,-9.40
2018-03-01T00:42:14.924Z,-9.35
2018-03-01T00:43:20.133Z,-9.37
2018-03-01T00:44:25.205Z,-9.37
2018-03-01T00:45:31.413Z,-9.36
2018-03-01T00:46:37.369Z,-9.41
2018-03-01T00:47:43.263Z,-9.35
2018-03-01T00:48:48.529Z,-9.37
2018-03-01T00:49:53.853Z,-9.40
2018-03-01T00:50:59.837Z,-9.36
2018-03-01T00:52:05.429Z,-9.41
2018-03-01T00:53:10.484Z,-9.41
2018-03-01T00:54:15.548Z,-9.35
2018-03-01T00:55:20.806Z,-9.31
2018-03-01T00:56:26.078Z,-9.29
2018-03-01T00:57:31.225Z,-9.29
2018-03-01T00:58:36.515Z,-9.36
2018-03-01T00:59:41.630Z,-9.35
2018-03-01T01:00:47.952Z,-9.38
2018-03-01T01:01:53.055Z,-9.34
2018-03-01T01:02:58.225Z,-9.31
2018-03-01T01:04:03.546Z,-9.36
2018-03-01T01:05:09.133Z,-9.36
2018-03-01T01:06:15.141Z,-9.38
2018-03-01T01:07:20.369Z,-9.36
2018-03-01T01:08:25.502Z,-9.41
2018-03-01T01:09:30.788Z,-9.44
2018-03-01T01:10:36.213Z,-9.39
2018-03-01T01:11:41.656Z,-9.33
2018-03-01T01:12:47.241Z,-9.36
2018-03-01T01:13:52.846Z,-9.37
2018-03-01T01:14:57.856Z,-9.36
2018-03-01T01:16:03.558Z,-9.29
2018-03-01T01:17:08.901Z,-9.29
2018-03-01T01:18:14.118Z,-9.23
2018-03-01T01:19:19.608Z,-9.22
2018-03-01T01:20:26.401Z,-9.25
2018-03-01T01:21:31.839Z,-9.27
2018-03-01T01:22:37.624Z,-9.26
2018-03-01T01:23:43.646Z,-9.30
2018-03-01T01:24:48.636Z,-9.27
2018-03-01T01:25:53.894Z,-9.42
2018-03-01T01:26:59.226Z,-9.40
2018-03-01T01:28:04.645Z,-9.25
2018-03-01T01:29:10.579Z,-9.30
2018-03-01T01:30:18.361Z,-9.30
2018-03-01T01:31:24.295Z,-9.28
2018-03-01T01:32:29.361Z,-9.27
2018-03-01T01:33:34.758Z,-9.27
2018-03-01T01:34:39.975Z,-9.28
2018-03-01T01:35:45.019Z,-9.31
2018-03-01T01:36:50.836Z,-9.27
2018-03-01T01:37:56.033Z,-9.30
2018-03-01T01:39:00.919Z,-9.26
2018-03-01T01:40:05.868Z,-9.33
2018-03-01T01:41:10.947Z,-9.28
2018-03-01T01:42:17.346Z,-9.28
2018-03-01T01:43:24.198Z,-9.20
2018-03-01T01:44:30.415Z,-9.30
2018-03-01T01:45:35.755Z,-9.33
2018-03-01T01:46:40.554Z,-9.36
2018-03-01T01:47:45.798Z,-9.29
2018-03-01T01:48:51.050Z,-9.18
2018-03-01T01:49:56.034Z,-9.16
2018-03-01T01:51:05.499Z,-9.15
2018-03-01T01:52:12.330Z,-9.16
2018-03-01T01:53:17.566Z,-9.14
2018-03-01T01:54:22.451Z,-9.07
2018-03-01T01:55:28.516Z,-9.14
2018-03-01T01:56:34.813Z,-9.15
2018-03-01T01:57:39.928Z,-9.22
2018-03-01T01:58:45.197Z,-9.23
2018-03-01T01:59:50.102Z,-9.16
2018-03-01T02:00:55.312Z,-9.07
2018-03-01T02:02:01.671Z,-9.09
2018-03-01T02:03:06.556Z,-9.15
2018-03-01T02:04:11.341Z,-9.21
2018-03-01T02:05:15.994Z,-9.18
2018-03-01T02:06:22.324Z,-9.24
2018-03-01T02:07:27.160Z,-9.20
2018-03-01T02:08:32.328Z,-9.16
2018-03-01T02:09:37.381Z,-9.12
2018-03-01T02:10:42.325Z,-9.08
2018-03-01T02:11:47.303Z,-9.11
2018-03-01T02:12:52.299Z,-9.12
2018-03-01T02:13:57.300Z,-9.10
2018-03-01T02:15:04.692Z,-9.16
2018-03-01T02:16:10.493Z,-9.10
2018-03-01T02:18:41.965Z,-9.29
2018-03-01T02:19:47.370Z,-9.25
2018-03-01T02:20:52.496Z,-9.22
2018-03-01T02:21:57.248Z,-9.19
2018-03-01T02:23:03.589Z,-9.28
2018-03-01T02:26:59.260Z,-9.27
2018-03-01T02:28:15.469Z,-9.22
2018-03-01T02:29:20.192Z,-9.20
2018-03-01T02:30:25.917Z,-9.18
2018-03-01T02:31:31.082Z,-9.23
2018-03-01T02:32:36.090Z,-9.24
2018-03-01T02:33:45.243Z,-9.25
2018-03-01T02:34:50.616Z,-9.20
2018-03-01T02:35:56.806Z,-9.17
2018-03-01T02:37:04.252Z,-9.19
2018-03-01T02:38:10.783Z,-9.19
2018-03-01T02:39:16.787Z,-9.22
2018-03-01T02:40:24.698Z,-9.11
2018-03-01T02:41:29.478Z,-9.14
2018-03-01T02:42:34.560Z,-9.12
2018-03-01T02:43:39.331Z,-9.15
2018-03-01T02:44:44.230Z,-9.14
2018-03-01T02:45:49.616Z,-9.15
2018-03-01T02:46:54.435Z,-9.13
2018-03-01T02:48:10.988Z,-9.16
2018-03-01T02:49:17.424Z,-9.18
2018-03-01T02:50:22.277Z,-9.16
2018-03-01T02:51:28.046Z,-9.11
2018-03-01T02:52:35.326Z,-9.13
2018-03-01T02:53:40.009Z,-9.23
2018-03-01T02:54:45.735Z,-9.16
2018-03-01T02:55:50.612Z,-9.20
2018-03-01T02:56:55.438Z,-9.13
2018-03-01T02:58:00.345Z,-9.15
2018-03-01T02:59:06.239Z,-9.14
2018-03-01T03:00:11.526Z,-9.13
2018-03-01T03:01:18.288Z,-9.04
2018-03-01T03:02:23.235Z,-9.02
2018-03-01T03:03:29.621Z,-9.05
2018-03-01T03:04:34.348Z,-9.11
2018-03-01T03:05:39.914Z,-9.09
2018-03-01T03:06:44.646Z,-9.08
2018-03-01T03:07:51.099Z,-9.03
2018-03-01T03:09:02.746Z,-9.08
2018-03-01T03:10:09.400Z,-9.05
2018-03-01T03:11:14.482Z,-9.05
2018-03-01T03:12:20.106Z,-9.01
2018-03-01T03:13:27.715Z,-9.06
2018-03-01T03:14:41.648Z,-9.09
2018-03-01T03:15:50.443Z,-9.07
2018-03-01T03:16:58.212Z,-9.09
2018-03-01T03:18:04.449Z,-9.15
2018-03-01T03:19:09.010Z,-9.17
2018-03-01T03:20:14.004Z,-9.19
2018-03-01T03:21:20.736Z,-9.18
2018-03-01T03:22:29.030Z,-9.05
2018-03-01T03:23:38.068Z,-9.07
2018-03-01T03:24:42.496Z,-9.06
2018-03-01T03:25:48.252Z,-8.97
2018-03-01T03:26:52.888Z,-8.96
2018-03-01T03:27:57.513Z,-9.05
2018-03-01T03:29:02.045Z,-8.98
2018-03-01T03:30:08.187Z,-8.95
2018-03-01T03:31:12.831Z,-8.96
2018-03-01T03:32:36.545Z,-9.00
2018-03-01T03:33:42.021Z,-9.01
2018-03-01T03:34:46.463Z,-8.99
2018-03-01T03:35:50.830Z,-8.98
2018-03-01T03:37:14.843Z,-8.94
2018-03-01T03:38:19.600Z,-8.98
2018-03-01T03:39:35.536Z,-8.98
2018-03-01T03:43:38.624Z,-9.09
2018-03-01T03:44:43.300Z,-9.09
2018-03-01T03:45:47.640Z,-9.06
2018-03-01T03:46:52.410Z,-9.05
2018-03-01T03:47:57.116Z,-8.99
2018-03-01T03:49:03.458Z,-8.92
2018-03-01T03:50:07.849Z,-8.92
2018-03-01T03:51:12.735Z,-8.98
2018-03-01T03:52:17.672Z,-8.91
2018-03-01T03:53:22.069Z,-8.91
2018-03-01T03:54:26.606Z,-8.93
2018-03-01T03:55:32.014Z,-8.87
2018-03-01T03:56:37.032Z,-8.88
2018-03-01T03:57:41.353Z,-8.93
2018-03-01T03:58:46.062Z,-8.93
2018-03-01T03:59:50.604Z,-8.90
2018-03-01T04:00:55.022Z,-8.92
2018-03-01T04:02:00.069Z,-8.90
2018-03-01T04:03:04.653Z,-8.88
2018-03-01T04:04:09.255Z,-8.83
2018-03-01T04:05:14.007Z,-8.79
2018-03-01T04:06:18.671Z,-8.80
2018-03-01T04:07:23.176Z,-8.73
2018-03-01T04:08:27.447Z,-8.71
2018-03-01T04:09:32.632Z,-8.64
2018-03-01T04:10:37.464Z,-8.70
2018-03-01T04:11:42.060Z,-8.69
2018-03-01T04:12:46.489Z,-8.71
2018-03-01T04:13:51.669Z,-8.71
2018-03-01T04:14:56.049Z,-8.70
2018-03-01T04:16:00.514Z,-8.62
2018-03-01T04:17:04.986Z,-8.64
2018-03-01T04:18:09.607Z,-8.63
2018-03-01T04:19:14.352Z,-8.57
2018-03-01T04:20:18.807Z,-8.57
2018-03-01T04:21:23.274Z,-8.60
2018-03-01T04:22:27.847Z,-8.59
2018-03-01T04:23:32.424Z,-8.49
2018-03-01T04:24:36.775Z,-8.44
2018-03-01T04:25:41.783Z,-8.51
2018-03-01T04:26:46.278Z,-8.55
2018-03-01T04:27:50.918Z,-8.54
2018-03-01T04:28:55.599Z,-8.58
2018-03-01T04:30:00.325Z,-8.65
2018-03-01T04:31:04.876Z,-8.64
2018-03-01T04:32:09.809Z,-8.74
2018-03-01T04:33:14.450Z,-8.70
2018-03-01T04:34:19.087Z,-8.64
2018-03-01T04:35:23.817Z,-8.64
2018-03-01T04:36:28.616Z,-8.63
2018-03-01T04:37:33.062Z,-8.71
2018-03-01T04:38:37.841Z,-8.73
2018-03-01T04:39:42.342Z,-8.72
2018-03-01T04:40:46.645Z,-8.71
2018-03-01T04:41:51.089Z,-8.77
2018-03-01T04:42:55.540Z,-8.73
2018-03-01T04:44:00.583Z,-8.70
2018-03-01T04:45:07.223Z,-8.75
2018-03-01T04:46:11.744Z,-8.72
2018-03-01T04:47:16.292Z,-8.69
2018-03-01T04:48:21.042Z,-8.72
2018-03-01T04:49:26.054Z,-8.73
2018-03-01T04:50:30.696Z,-8.67
2018-03-01T04:51:36.709Z,-8.73
2018-03-01T04:52:41.269Z,-8.70
2018-03-01T04:53:45.823Z,-8.65
2018-03-01T04:54:50.653Z,-8.66
2018-03-01T04:55:55.337Z,-8.63
2018-03-01T04:56:59.884Z,-8.62
2018-03-01T04:58:04.683Z,-8.62
2018-03-01T04:59:09.315Z,-8.67
2018-03-01T05:00:15.301Z,-8.66
2018-03-01T05:01:19.930Z,-8.69
2018-03-01T05:02:25.442Z,-8.71
2018-03-01T05:03:31.353Z,-8.74
2018-03-01T05:04:37.801Z,-8.76
2018-03-01T05:05:42.497Z,-8.76
2018-03-01T05:06:47.650Z,-8.75
2018-03-01T05:07:52.338Z,-8.81
2018-03-01T05:08:56.863Z,-8.75
2018-03-01T05:10:01.893Z,-8.77
2018-03-01T05:11:06.599Z,-8.77
2018-03-01T05:12:11.223Z,-8.77
2018-03-01T05:13:17.041Z,-8.80
2018-03-01T05:14:21.873Z,-8.88
2018-03-01T05:15:26.901Z,-8.89
2018-03-01T05:16:32.048Z,-8.85
2018-03-01T05:17:36.701Z,-8.79
2018-03-01T05:18:41.447Z,-8.81
2018-03-01T05:19:46.021Z,-8.81
2018-03-01T05:20:50.689Z,-8.81
2018-03-01T05:21:55.422Z,-8.81
2018-03-01T05:23:00.514Z,-8.83
2018-03-01T05:24:05.176Z,-8.85
2018-03-01T05:25:10.297Z,-8.76
2018-03-01T05:26:14.829Z,-8.73
2018-03-01T05:27:19.646Z,-8.80
2018-03-01T05:28:24.593Z,-8.78
2018-03-01T05:29:29.479Z,-8.76
2018-03-01T05:30:34.585Z,-8.78
2018-03-01T05:31:39.417Z,-8.74
2018-03-01T05:32:44.124Z,-8.75
2018-03-01T05:33:49.365Z,-8.76
2018-03-01T05:34:55.580Z,-8.80
2018-03-01T05:36:00.648Z,-8.81
2018-03-01T05:37:05.478Z,-8.80
2018-03-01T05:38:10.496Z,-8.83
2018-03-01T05:39:15.250Z,-8.81
2018-03-01T05:40:22.545Z,-8.79
2018-03-01T05:41:27.081Z,-8.80
2018-03-01T05:42:31.885Z,-8.78
2018-03-01T05:43:38.056Z,-8.84
2018-03-01T05:44:43.355Z,-8.87
2018-03-01T05:45:48.940Z,-8.89
2018-03-01T05:46:54.003Z,-8.89
2018-03-01T05:47:59.351Z,-8.87
2018-03-01T05:49:05.132Z,-8.82
2018-03-01T05:50:10.129Z,-8.79
2018-03-01T05:51:15.072Z,-8.85
2018-03-01T05:52:20.258Z,-8.84
2018-03-01T05:53:25.959Z,-8.82
2018-03-01T05:54:32.215Z,-8.79
2018-03-01T05:55:37.151Z,-8.76
2018-03-01T05:56:42.372Z,-8.79
2018-03-01T05:57:47.553Z,-8.84
2018-03-01T05:58:52.853Z,-8.77
2018-03-01T05:59:59.276Z,-8.78
2018-03-01T06:01:04.644Z,-8.72
2018-03-01T06:02:09.918Z,-8.75
2018-03-01T06:03:15.595Z,-8.77
2018-03-01T06:04:21.202Z,-8.78
2018-03-01T06:05:26.655Z,-8.80
2018-03-01T06:06:32.235Z,-8.78
2018-03-01T06:07:37.484Z,-8.76
2018-03-01T06:08:43.501Z,-8.73
2018-03-01T06:09:49.329Z,-8.77
2018-03-01T06:10:54.647Z,-8.74
2018-03-01T06:11:59.984Z,-8.75
2018-03-01T06:13:05.250Z,-8.76
2018-03-01T06:14:10.317Z,-8.80
2018-03-01T06:15:16.470Z,-8.79
2018-03-01T06:16:21.679Z,-8.75
2018-03-01T06:17:27.198Z,-8.73
2018-03-01T06:18:32.425Z,-8.74
2018-03-01T06:19:37.501Z,-8.71
2018-03-01T06:20:42.659Z,-8.78
2018-03-01T06:21:48.025Z,-8.79
2018-03-01T06:22:53.750Z,-8.83
2018-03-01T06:23:59.037Z,-8.76
2018-03-01T06:25:05.002Z,-8.75
2018-03-01T06:26:10.063Z,-8.80
2018-03-01T06:27:15.060Z,-8.77
2018-03-01T06:28:20.271Z,-8.75
2018-03-01T06:29:25.899Z,-8.77
2018-03-01T06:30:31.190Z,-8.72
2018-03-01T06:31:36.354Z,-8.74
2018-03-01T06:32:43.060Z,-8.73
2018-03-01T06:33:48.414Z,-8.74
2018-03-01T06:34:53.666Z,-8.80
2018-03-01T06:35:59.334Z,-8.72
2018-03-01T06:37:04.652Z,-8.75
2018-03-01T06:38:09.734Z,-8.77
2018-03-01T06:39:14.940Z,-8.75
2018-03-01T06:40:20.113Z,-8.72
2018-03-01T06:41:25.269Z,-8.75
2018-03-01T06:42:30.475Z,-8.71
2018-03-01T06:43:35.602Z,-8.70
2018-03-01T06:44:40.747Z,-8.70
2018-03-01T06:45:46.736Z,-8.73
2018-03-01T06:46:52.557Z,-8.84
2018-03-01T06:47:57.388Z,-8.82
2018-03-01T06:49:02.970Z,-8.87
2018-03-01T06:50:08.016Z,-8.85
2018-03-01T06:51:13.040Z,-8.84
2018-03-01T06:52:18.100Z,-8.82
2018-03-01T06:54:29.640Z,-8.92
2018-03-01T06:55:35.035Z,-8.85
2018-03-01T06:56:40.375Z,-8.87
2018-03-01T06:57:45.629Z,-8.86
2018-03-01T06:58:50.771Z,-8.86
2018-03-01T06:59:57.336Z,-8.81
2018-03-01T07:01:02.647Z,-8.72
2018-03-01T07:02:08.218Z,-8.65
2018-03-01T07:03:13.461Z,-8.64
2018-03-01T07:04:18.585Z,-8.64
2018-03-01T07:05:23.670Z,-8.66
2018-03-01T07:06:29.150Z,-8.61
2018-03-01T07:07:34.188Z,-8.58
2018-03-01T07:08:39.334Z,-8.53
2018-03-01T07:09:44.862Z,-8.47
2018-03-01T07:10:50.080Z,-8.52
2018-03-01T07:11:55.230Z,-8.48
2018-03-01T07:13:00.258Z,-8.36
2018-03-01T07:14:05.401Z,-8.32
2018-03-01T07:15:10.709Z,-8.28
2018-03-01T07:16:15.982Z,-8.30
2018-03-01T07:17:20.976Z,-8.11
2018-03-01T07:18:25.977Z,-8.11
2018-03-01T07:19:31.005Z,-7.95
2018-03-01T07:20:36.369Z,-7.88
2018-03-01T07:21:42.047Z,-7.73
2018-03-01T07:22:47.258Z,-7.70
2018-03-01T07:23:52.545Z,-7.60
2018-03-01T07:24:58.035Z,-7.57
2018-03-01T07:26:03.695Z,-7.43
2018-03-01T07:27:08.750Z,-7.52
2018-03-01T07:28:14.291Z,-7.57
2018-03-01T07:29:19.308Z,-7.53
2018-03-01T07:30:24.874Z,-7.49
2018-03-01T07:31:30.101Z,-7.49
2018-03-01T07:33:43.689Z,-7.33
2018-03-01T07:34:49.303Z,-7.18
2018-03-01T07:35:55.108Z,-7.26
2018-03-01T07:37:00.100Z,-7.14
2018-03-01T07:38:06.044Z,-6.81
2018-03-01T07:39:10.993Z,-6.62
2018-03-01T07:40:16.083Z,-6.53
2018-03-01T07:41:21.430Z,-6.57
2018-03-01T07:42:26.501Z,-6.74
2018-03-01T07:43:31.344Z,-6.74
2018-03-01T07:44:36.227Z,-6.73
2018-03-01T07:45:41.405Z,-6.50
2018-03-01T07:46:46.415Z,-6.49
2018-03-01T07:47:51.630Z,-6.80
2018-03-01T07:48:56.728Z,-6.69
2018-03-01T07:50:02.560Z,-6.64
2018-03-01T07:51:07.600Z,-6.62
2018-03-01T07:52:13.537Z,-6.37
2018-03-01T07:53:18.399Z,-6.31
2018-03-01T07:54:23.432Z,-6.15
2018-03-01T07:55:28.601Z,-6.12
2018-03-01T07:56:33.871Z,-6.26
2018-03-01T07:57:38.872Z,-6.10
2018-03-01T07:58:43.909Z,-6.31
2018-03-01T07:59:48.750Z,-6.27
2018-03-01T08:00:54.301Z,-6.38
2018-03-01T08:01:59.185Z,-6.29
2018-03-01T08:03:04.384Z,-6.43
2018-03-01T08:04:09.218Z,-6.51
2018-03-01T08:05:14.224Z,-6.27
2018-03-01T08:06:19.629Z,-6.09
2018-03-01T08:07:24.582Z,-5.74
2018-03-01T08:08:30.397Z,-5.58
2018-03-01T08:09:35.273Z,-5.59
2018-03-01T08:10:40.398Z,-5.44
2018-03-01T08:11:45.318Z,-5.34
2018-03-01T08:12:50.510Z,-5.37
2018-03-01T08:13:55.459Z,-5.34
2018-03-01T08:15:00.553Z,-5.14
2018-03-01T08:16:05.482Z,-4.99
2018-03-01T08:17:10.545Z,-5.03
2018-03-01T08:18:15.695Z,-4.85
2018-03-01T08:19:20.364Z,-4.87
2018-03-01T08:20:25.058Z,-5.17
2018-03-01T08:21:29.931Z,-5.40
2018-03-01T08:22:34.873Z,-5.43
2018-03-01T08:23:40.056Z,-5.21
2018-03-01T08:24:45.283Z,-5.08
2018-03-01T08:25:50.005Z,-5.06
2018-03-01T08:26:56.789Z,-4.93
2018-03-01T08:28:01.870Z,-4.85
2018-03-01T08:29:06.879Z,-4.82
2018-03-01T08:30:13.850Z,-4.81
2018-03-01T08:31:19.094Z,-4.85
2018-03-01T08:32:23.926Z,-4.92
2018-03-01T08:33:28.768Z,-5.02
2018-03-01T08:34:33.564Z,-4.83
2018-03-01T08:35:38.341Z,-4.72
2018-03-01T08:36:43.299Z,-4.43
2018-03-01T08:37:48.557Z,-4.50
2018-03-01T08:38:55.500Z,-4.64
2018-03-01T08:40:01.125Z,-4.68
2018-03-01T08:41:05.883Z,-4.69
2018-03-01T08:42:10.796Z,-4.67
2018-03-01T08:43:15.718Z,-4.71
2018-03-01T08:44:20.864Z,-4.93
2018-03-01T08:45:26.031Z,-4.75
2018-03-01T08:46:31.396Z,-4.52
2018-03-01T08:47:39.499Z,-4.45
2018-03-01T08:48:44.502Z,-4.40
2018-03-01T08:49:49.450Z,-4.38
2018-03-01T08:50:55.558Z,-4.33
2018-03-01T08:52:00.770Z,-4.37
2018-03-01T08:53:05.764Z,-4.34
2018-03-01T08:54:10.586Z,-4.25
2018-03-01T08:55:15.461Z,-4.21
2018-03-01T08:56:20.458Z,-4.05
2018-03-01T08:57:26.381Z,-3.80
2018-03-01T08:58:31.547Z,-3.56
2018-03-01T08:59:36.494Z,-3.42
2018-03-01T09:00:41.771Z,-3.44
2018-03-01T09:01:47.334Z,-3.45
2018-03-01T09:02:52.077Z,-3.69
2018-03-01T09:03:57.011Z,-3.87
2018-03-01T09:05:02.028Z,-4.09
2018-03-01T09:06:06.870Z,-4.03
2018-03-01T09:07:11.766Z,-3.92
2018-03-01T09:08:16.589Z,-4.20
2018-03-01T09:09:21.639Z,-4.26
2018-03-01T09:10:26.949Z,-4.32
2018-03-01T09:11:31.831Z,-4.16
2018-03-01T09:12:36.635Z,-4.12
2018-03-01T09:13:41.795Z,-4.08
2018-03-01T09:14:46.598Z,-4.05
2018-03-01T09:15:52.064Z,-3.96
2018-03-01T09:16:57.296Z,-3.98
2018-03-01T09:18:03.201Z,-3.90
2018-03-01T09:19:08.050Z,-3.85
2018-03-01T09:20:13.035Z,-3.96
2018-03-01T09:21:17.913Z,-3.95
2018-03-01T09:22:22.890Z,-3.83
2018-03-01T09:24:41.133Z,-3.69
2018-03-01T09:25:45.969Z,-3.54
2018-03-01T09:26:51.057Z,-3.54
2018-03-01T09:27:55.890Z,-3.52
2018-03-01T09:29:01.180Z,-3.51
2018-03-01T09:30:07.482Z,-3.39
2018-03-01T09:31:12.492Z,-3.42
2018-03-01T09:32:17.430Z,-3.51
2018-03-01T09:33:22.183Z,-3.43
2018-03-01T09:34:27.133Z,-3.43
2018-03-01T09:35:32.118Z,-3.34
2018-03-01T09:36:37.306Z,-3.50
2018-03-01T09:37:42.103Z,-3.50
2018-03-01T09:38:46.942Z,-3.28
2018-03-01T09:39:51.773Z,-3.08
2018-03-01T09:40:56.499Z,-3.09
2018-03-01T09:42:01.967Z,-3.17
2018-03-01T09:43:07.040Z,-3.24
2018-03-01T09:44:11.734Z,-3.10
2018-03-01T09:45:16.577Z,-3.15
2018-03-01T09:46:21.340Z,-2.94
2018-03-01T09:47:26.109Z,-2.58
2018-03-01T09:48:30.991Z,-2.61
2018-03-01T09:49:35.806Z,-2.56
2018-03-01T09:50:40.706Z,-2.58
2018-03-01T09:51:45.388Z,-2.60
2018-03-01T09:52:50.349Z,-2.81
2018-03-01T09:53:55.250Z,-2.86
2018-03-01T09:55:00.090Z,-2.90
2018-03-01T09:56:05.285Z,-2.75
2018-03-01T09:57:10.055Z,-2.67
2018-03-01T09:58:15.160Z,-2.89
2018-03-01T09:59:20.401Z,-2.69
2018-03-01T10:00:25.937Z,-2.90
2018-03-01T10:01:31.864Z,-3.05
2018-03-01T10:02:36.868Z,-3.15
2018-03-01T10:03:41.813Z,-3.14
2018-03-01T10:04:46.789Z,-2.86
2018-03-01T10:05:51.701Z,-2.58
2018-03-01T10:06:56.673Z,-2.40
2018-03-01T10:08:01.531Z,-2.13
2018-03-01T10:09:06.682Z,-2.23
2018-03-01T10:10:11.508Z,-2.17
2018-03-01T10:11:16.407Z,-2.29
2018-03-01T10:12:21.408Z,-2.26
2018-03-01T10:13:26.250Z,-2.21
2018-03-01T10:14:30.957Z,-2.29
2018-03-01T10:15:36.406Z,-2.01
2018-03-01T10:16:41.349Z,-1.67
2018-03-01T10:17:46.256Z,-1.47
2018-03-01T10:18:51.123Z,-1.34
2018-03-01T10:19:56.323Z,-1.32
2018-03-01T10:21:01.662Z,-1.24
2018-03-01T10:22:06.733Z,-1.17
2018-03-01T10:23:11.707Z,-1.06
2018-03-01T10:24:16.485Z,-1.11
2018-03-01T10:25:21.307Z,-1.33
2018-03-01T10:26:26.119Z,-1.27
2018-03-01T10:27:31.500Z,-1.57
2018-03-01T10:28:39.672Z,-2.11
2018-03-01T10:29:48.289Z,-2.21
2018-03-01T10:30:53.984Z,-2.09
2018-03-01T10:31:59.437Z,-2.17
2018-03-01T10:33:04.301Z,-1.93
2018-03-01T10:34:09.054Z,-1.98
2018-03-01T10:35:13.918Z,-2.13
2018-03-01T10:36:18.837Z,-2.10
2018-03-01T10:37:23.689Z,-1.83
2018-03-01T10:38:28.543Z,-1.86
2018-03-01T10:39:33.832Z,-1.67
2018-03-01T10:40:38.733Z,-1.64
2018-03-01T10:41:44.270Z,-1.60
2018-03-01T10:42:49.032Z,-1.54
2018-03-01T10:43:53.913Z,-1.59
2018-03-01T10:44:58.661Z,-1.66
2018-03-01T10:46:04.373Z,-1.69
2018-03-01T10:47:09.177Z,-1.74
2018-03-01T10:48:13.903Z,-1.64
2018-03-01T10:49:18.727Z,-1.40
2018-03-01T10:50:23.562Z,-0.86
2018-03-01T10:51:28.454Z,-0.83
2018-03-01T10:52:33.469Z,-1.32
2018-03-01T10:53:38.450Z,-1.50
2018-03-01T10:54:43.287Z,-1.20
2018-03-01T10:55:48.104Z,-1.24
2018-03-01T10:56:52.953Z,-1.23
2018-03-01T10:57:57.747Z,-1.36
2018-03-01T10:59:02.910Z,-1.41
2018-03-01T11:00:09.582Z,-1.20
2018-03-01T11:01:18.244Z,-1.07
2018-03-01T11:02:22.957Z,-1.06
2018-03-01T11:03:27.711Z,-0.69
2018-03-01T11:04:32.632Z,-0.48
2018-03-01T11:05:37.658Z,-0.55
2018-03-01T11:06:42.650Z,-0.73
2018-03-01T11:07:47.439Z,-0.56
2018-03-01T11:08:52.297Z,-0.47
2018-03-01T11:09:57.161Z,-0.21
2018-03-01T11:11:02.305Z,-0.55
2018-03-01T11:12:07.956Z,-1.04
2018-03-01T11:13:12.922Z,-1.00
2018-03-01T11:14:17.816Z,-0.78
2018-03-01T11:15:23.223Z,-0.86
2018-03-01T11:16:27.937Z,-0.63
2018-03-01T11:17:33.048Z,-0.30
2018-03-01T11:18:37.975Z,-0.26
2018-03-01T11:19:42.988Z,-0.45
2018-03-01T11:20:47.921Z,-0.17
2018-03-01T11:21:53.022Z,-0.02
2018-03-01T11:22:57.989Z,0.23
2018-03-01T11:24:03.140Z,0.09
2018-03-01T11:25:07.874Z,-0.02
2018-03-01T11:26:12.715Z,-0.49
2018-03-01T11:27:17.502Z,-0.80
2018-03-01T11:28:22.475Z,-0.70
2018-03-01T11:29:27.321Z,-0.37
2018-03-01T11:30:32.164Z,-0.55
2018-03-01T11:31:37.049Z,-0.68
2018-03-01T11:32:41.844Z,-0.57
2018-03-01T11:33:46.699Z,-0.40
2018-03-01T11:34:51.727Z,0.18
2018-03-01T11:35:56.464Z,0.87
2018-03-01T11:37:01.235Z,1.06
2018-03-01T11:38:06.008Z,1.03
2018-03-01T11:39:10.909Z,0.92
2018-03-01T11:40:15.725Z,1.22
2018-03-01T11:41:20.400Z,0.57
2018-03-01T11:42:25.474Z,0.47
2018-03-01T11:43:30.191Z,0.50
2018-03-01T11:44:35.031Z,0.66
2018-03-01T11:45:40.125Z,0.79
2018-03-01T11:46:44.810Z,0.93
2018-03-01T11:47:49.644Z,1.18
2018-03-01T11:48:54.728Z,1.27
2018-03-01T11:49:59.601Z,0.96
2018-03-01T11:51:04.485Z,0.57
2018-03-01T11:52:09.397Z,0.27
2018-03-01T11:53:14.104Z,-0.19
2018-03-01T11:54:19.057Z,-0.14
2018-03-01T11:55:23.833Z,0.53
2018-03-01T11:56:28.551Z,0.90
2018-03-01T11:57:33.216Z,0.34
2018-03-01T11:58:37.884Z,0.37
2018-03-01T11:59:42.695Z,0.36
2018-03-01T12:00:47.876Z,0.25
2018-03-01T12:01:53.360Z,0.45
2018-03-01T12:02:58.503Z,0.68
2018-03-01T12:04:03.671Z,0.85
2018-03-01T12:05:08.399Z,0.73
2018-03-01T12:06:13.245Z,0.60
2018-03-01T12:07:18.930Z,0.56
2018-03-01T12:08:24.046Z,0.76
2018-03-01T12:09:28.802Z,0.42
2018-03-01T12:10:33.650Z,0.53
2018-03-01T12:11:38.417Z,0.57
2018-03-01T12:12:43.132Z,1.05
2018-03-01T12:13:49.011Z,0.73
2018-03-01T12:14:54.168Z,0.98
2018-03-01T12:15:58.965Z,1.43
2018-03-01T12:17:03.739Z,1.24
2018-03-01T12:18:08.550Z,1.55
2018-03-01T12:19:13.314Z,2.23
2018-03-01T12:20:18.126Z,1.76
2018-03-01T12:21:22.881Z,1.22
2018-03-01T12:22:27.695Z,0.81
2018-03-01T12:23:32.458Z,0.88
2018-03-01T12:24:37.123Z,0.96
2018-03-01T12:25:41.897Z,0.93
2018-03-01T12:26:46.764Z,0.81
2018-03-01T12:27:51.665Z,0.81
2018-03-01T12:28:56.364Z,1.07
2018-03-01T12:30:01.231Z,1.02
2018-03-01T12:31:06.675Z,0.23
2018-03-01T12:32:12.652Z,0.06
2018-03-01T12:33:17.393Z,0.68
2018-03-01T12:34:22.242Z,0.73
2018-03-01T12:35:28.299Z,1.32
2018-03-01T12:36:33.000Z,2.11
2018-03-01T12:37:37.744Z,2.09
2018-03-01T12:38:42.682Z,1.36
2018-03-01T12:39:47.494Z,0.83
2018-03-01T12:40:52.242Z,1.05
2018-03-01T12:41:56.962Z,1.21
2018-03-01T12:43:01.942Z,1.25
2018-03-01T12:44:06.671Z,1.07
2018-03-01T12:45:14.114Z,1.48
2018-03-01T12:46:19.413Z,1.43
2018-03-01T12:47:24.141Z,1.19
2018-03-01T12:48:28.800Z,1.06
2018-03-01T12:49:33.736Z,1.15
2018-03-01T12:50:38.646Z,1.56
2018-03-01T12:51:43.758Z,1.76
2018-03-01T12:52:48.621Z,1.58
2018-03-01T12:53:53.534Z,2.10
2018-03-01T12:54:58.443Z,2.21
2018-03-01T12:56:03.738Z,2.16
2018-03-01T12:57:08.926Z,2.46
2018-03-01T12:58:13.938Z,1.31
2018-03-01T12:59:18.776Z,1.67
2018-03-01T13:00:23.797Z,1.60
2018-03-01T13:01:28.676Z,1.30
2018-03-01T13:02:33.636Z,1.29
2018-03-01T13:03:39.688Z,1.75
2018-03-01T13:04:44.711Z,1.74
2018-03-01T13:05:49.601Z,1.70
2018-03-01T13:06:54.443Z,1.30
2018-03-01T13:07:59.384Z,0.31
2018-03-01T13:09:04.631Z,0.16
2018-03-01T13:10:09.826Z,0.20
2018-03-01T13:11:14.702Z,1.45
2018-03-01T13:12:20.557Z,1.90
2018-03-01T13:13:25.370Z,1.90
2018-03-01T13:14:30.450Z,1.60
2018-03-01T13:15:35.815Z,1.56
2018-03-01T13:16:40.772Z,2.17
2018-03-01T13:17:45.693Z,1.32
2018-03-01T13:18:50.637Z,1.55
2018-03-01T13:19:55.530Z,1.70
2018-03-01T13:21:00.611Z,1.13
2018-03-01T13:22:05.437Z,1.26
2018-03-01T13:23:11.601Z,0.78
2018-03-01T13:24:16.663Z,0.20
2018-03-01T13:25:21.548Z,0.33
2018-03-01T13:26:26.462Z,1.09
2018-03-01T13:27:31.398Z,1.01
2018-03-01T13:28:36.454Z,1.60
2018-03-01T13:29:41.343Z,1.40
2018-03-01T13:30:46.587Z,1.29
2018-03-01T13:31:51.626Z,1.84
2018-03-01T13:32:56.441Z,1.32
2018-03-01T13:34:01.478Z,1.06
2018-03-01T13:35:06.804Z,1.19
2018-03-01T13:36:11.667Z,1.24
2018-03-01T13:37:16.639Z,1.35
2018-03-01T13:38:21.525Z,1.80
2018-03-01T13:39:26.431Z,2.04
2018-03-01T13:40:31.270Z,1.32
2018-03-01T13:41:36.189Z,1.68
2018-03-01T13:42:41.084Z,2.09
2018-03-01T13:43:45.952Z,1.10
2018-03-01T13:44:50.764Z,0.84
2018-03-01T13:45:56.208Z,0.65
2018-03-01T13:47:01.252Z,0.72
2018-03-01T13:48:06.173Z,0.17
2018-03-01T13:49:12.203Z,-0.22
2018-03-01T13:50:17.612Z,0.99
2018-03-01T13:51:22.707Z,2.33
2018-03-01T13:52:27.516Z,3.19
2018-03-01T13:53:32.323Z,2.81
2018-03-01T13:54:37.199Z,2.31
2018-03-01T13:55:42.130Z,1.90
2018-03-01T13:56:47.271Z,1.78
2018-03-01T13:57:52.031Z,0.80
2018-03-01T13:58:56.819Z,1.02
2018-03-01T14:00:03.845Z,1.36
2018-03-01T14:01:09.338Z,1.67
2018-03-01T14:02:15.113Z,2.37
2018-03-01T14:03:20.454Z,2.11
2018-03-01T14:04:25.395Z,2.20
2018-03-01T14:05:30.362Z,2.48
2018-03-01T14:06:35.510Z,2.87
2018-03-01T14:07:40.495Z,2.12
2018-03-01T14:08:45.419Z,2.01
2018-03-01T14:09:51.543Z,1.77
2018-03-01T14:10:56.506Z,2.04
2018-03-01T14:12:01.540Z,1.87
2018-03-01T14:13:06.480Z,0.78
2018-03-01T14:14:11.644Z,0.79
2018-03-01T14:15:17.725Z,0.45
2018-03-01T14:16:23.695Z,0.62
2018-03-01T14:17:28.773Z,1.01